Time;durP1;ratioP1;P1;durP2;ratioP2;P2;SDS_P1;SDS_P2;PMS_P1;PMS_P2;Temp;Humidity;BMP_temperature;BMP_pressure;BME280_temperature;BME280_humidity;BME280_pressure;Samples;Min_cycle;Max_cycle;Signal;HPM_P1;HPM_P2
2022/06/27 00:00:51;;;;;;;1.90;1.80;;;;;;;20.25;67.74;101019.53;4980144;28;20025;-84
2022/06/27 00:03:16;;;;;;;1.90;1.80;;;;;;;20.23;68.58;101016.97;4980284;28;20026;-84
2022/06/27 00:05:42;;;;;;;2.22;2.03;;;;;;;20.25;67.56;101019.53;4980362;28;20053;-83
2022/06/27 00:08:08;;;;;;;2.35;2.25;;;;;;;20.19;66.87;101017.19;4980275;28;20025;-84
2022/06/27 00:10:33;;;;;;;2.38;2.28;;;;;;;20.20;67.51;101018.91;4996476;28;20025;-84
2022/06/27 00:12:59;;;;;;;2.10;2.00;;;;;;;20.15;68.50;101024.47;4980098;28;20072;-84
2022/06/27 00:15:25;;;;;;;2.20;2.10;;;;;;;20.16;67.89;101025.31;4996442;28;20460;-84
2022/06/27 00:17:50;;;;;;;2.20;2.10;;;;;;;20.18;66.70;101018.13;4996175;28;20021;-84
2022/06/27 00:20:15;;;;;;;2.72;2.25;;;;;;;20.14;67.06;101020.09;4979829;28;20494;-84
2022/06/27 00:22:41;;;;;;;2.25;2.15;;;;;;;20.13;68.66;101020.19;4979933;28;20064;-84
2022/06/27 00:25:08;;;;;;;2.08;1.98;;;;;;;20.10;68.66;101019.38;4979972;28;20526;-84
2022/06/27 00:27:34;;;;;;;2.45;2.35;;;;;;;20.10;69.73;101013.25;4979847;28;20030;-84
2022/06/27 00:29:59;;;;;;;2.22;2.13;;;;;;;20.07;69.44;101010.75;4979840;28;20026;-84
2022/06/27 00:32:26;;;;;;;2.30;2.20;;;;;;;20.06;69.60;100993.97;4996019;28;20375;-84
2022/06/27 00:34:52;;;;;;;2.55;2.45;;;;;;;20.03;69.12;100988.81;4980085;28;20365;-84
2022/06/27 00:37:18;;;;;;;2.55;2.38;;;;;;;20.02;70.31;100997.72;4995938;28;20028;-84
2022/06/27 00:39:43;;;;;;;2.38;2.28;;;;;;;20.02;69.63;101000.34;4995869;28;20029;-84
2022/06/27 00:42:09;;;;;;;3.00;2.80;;;;;;;19.99;69.42;101011.13;4979771;28;20021;-84
2022/06/27 00:44:40;;;;;;;2.92;2.20;;;;;;;19.97;68.46;101010.34;4979510;28;20029;-83
2022/06/27 00:47:07;;;;;;;2.90;2.70;;;;;;;19.96;68.91;101010.41;4995854;28;20032;-84
2022/06/27 00:49:34;;;;;;;2.45;2.25;;;;;;;19.96;69.86;101006.00;4979679;28;20395;-84
2022/06/27 00:52:00;;;;;;;2.72;2.53;;;;;;;19.95;69.89;101006.91;4979324;28;20029;-84
2022/06/27 00:54:26;;;;;;;2.40;2.30;;;;;;;19.93;70.55;100999.06;4979428;28;20057;-84
2022/06/27 00:56:51;;;;;;;2.80;2.60;;;;;;;19.94;71.13;100991.94;4979348;28;20068;-84
2022/06/27 00:59:18;;;;;;;2.47;2.38;;;;;;;19.94;70.20;100994.59;4995308;28;20068;-84
2022/06/27 01:01:43;;;;;;;2.28;2.17;;;;;;;19.92;70.13;101005.28;4979095;28;20027;-84
2022/06/27 01:04:08;;;;;;;2.63;2.53;;;;;;;19.89;71.06;101002.78;4979323;28;20084;-84
2022/06/27 01:06:34;;;;;;;2.50;2.40;;;;;;;19.90;70.49;101000.97;4995483;28;20507;-84
2022/06/27 01:08:59;;;;;;;2.40;2.25;;;;;;;19.92;71.00;100996.47;4995307;28;20109;-84
2022/06/27 01:11:25;;;;;;;2.60;2.40;;;;;;;19.95;70.93;101000.75;4979096;28;20031;-84
2022/06/27 01:13:51;;;;;;;2.75;2.55;;;;;;;19.91;69.47;101005.34;4995227;28;20357;-84
2022/06/27 01:16:16;;;;;;;2.47;2.35;;;;;;;19.91;70.36;101008.84;4995444;28;20025;-83
2022/06/27 01:18:42;;;;;;;2.25;2.15;;;;;;;19.90;70.37;101011.59;4978926;28;20025;-84
2022/06/27 01:21:08;;;;;;;2.35;2.25;;;;;;;19.86;69.96;101031.22;4995143;28;20037;-84
2022/06/27 01:23:35;;;;;;;2.20;2.10;;;;;;;19.84;70.64;101099.38;4978801;28;20120;-84
2022/06/27 01:26:00;;;;;;;3.03;1.98;;;;;;;19.74;70.46;101158.09;4994971;28;20064;-83
2022/06/27 01:28:26;;;;;;;2.05;1.90;;;;;;;19.72;70.05;101164.41;4994987;28;20026;-84
2022/06/27 01:30:51;;;;;;;2.47;2.28;;;;;;;19.67;70.27;101135.44;4978899;28;20092;-84
2022/06/27 01:33:17;;;;;;;1.95;1.85;;;;;;;19.65;70.93;101071.09;4978683;28;20053;-83
2022/06/27 01:35:42;;;;;;;3.08;2.35;;;;;;;19.65;70.48;101079.03;4978671;28;20026;-83
2022/06/27 01:38:08;;;;;;;2.40;2.30;;;;;;;19.63;70.69;101130.38;4978779;28;20541;-83
2022/06/27 01:40:34;;;;;;;2.67;1.98;;;;;;;19.61;70.61;101143.69;4978783;28;20060;-84
2022/06/27 01:42:59;;;;;;;2.50;2.30;;;;;;;19.60;70.77;101144.63;4978662;28;20306;-84
2022/06/27 01:45:25;;;;;;;2.20;2.10;;;;;;;19.58;70.60;101128.81;4978744;28;20094;-83
2022/06/27 01:47:50;;;;;;;2.05;1.88;;;;;;;19.60;70.45;101104.88;4994971;28;20030;-83
2022/06/27 01:50:20;;;;;;;2.63;2.42;;;;;;;19.56;69.45;101090.91;4978506;28;20510;-84
2022/06/27 01:52:48;;;;;;;1.90;1.80;;;;;;;19.60;69.21;101102.22;4978555;28;20026;-84
2022/06/27 01:55:14;;;;;;;1.95;1.85;;;;;;;19.58;69.28;101104.97;4995049;28;20472;-83
2022/06/27 01:57:39;;;;;;;1.50;1.40;;;;;;;19.55;69.80;101098.94;4978678;28;20084;-84
2022/06/27 02:00:06;;;;;;;2.90;1.77;;;;;;;19.53;69.69;101095.50;4978618;28;20059;-84
2022/06/27 02:02:31;;;;;;;2.42;1.73;;;;;;;19.49;69.94;101083.34;4978584;28;20025;-84
2022/06/27 02:04:57;;;;;;;1.67;1.50;;;;;;;19.47;69.26;101087.84;4978697;28;20026;-84
2022/06/27 02:07:22;;;;;;;1.80;1.70;;;;;;;19.40;70.53;101095.22;4978617;28;20025;-83
2022/06/27 02:09:49;;;;;;;1.80;1.50;;;;;;;19.32;70.67;101089.41;4978531;28;20049;-83
2022/06/27 02:12:18;;;;;;;2.03;1.92;;;;;;;19.29;71.17;101090.41;4994070;28;20018;-83
2022/06/27 02:14:49;;;;;;;2.10;2.00;;;;;;;19.22;70.77;101089.00;4978825;28;20022;-83
2022/06/27 02:17:15;;;;;;;2.50;1.92;;;;;;;19.13;72.54;101107.94;4978562;28;20026;-83
2022/06/27 02:19:41;;;;;;;2.22;2.03;;;;;;;19.07;73.71;101106.44;4994232;28;20650;-84
2022/06/27 02:22:08;;;;;;;2.28;1.92;;;;;;;19.08;73.83;101102.88;4980053;28;20137;-83
2022/06/27 02:24:33;;;;;;;1.90;1.80;;;;;;;19.03;74.17;101087.22;4982347;28;20018;-83
2022/06/27 02:26:59;;;;;;;2.15;2.05;;;;;;;19.08;73.84;101071.94;4982115;28;20041;-83
2022/06/27 02:29:25;;;;;;;2.22;2.03;;;;;;;19.07;73.54;101062.31;4982133;28;20033;-84
2022/06/27 02:31:50;;;;;;;2.47;2.38;;;;;;;19.00;74.43;101060.84;4998552;28;20487;-84
2022/06/27 02:34:16;;;;;;;2.20;2.08;;;;;;;18.99;74.01;101059.16;4982077;28;20032;-84
2022/06/27 02:36:44;;;;;;;2.17;2.03;;;;;;;18.95;74.61;101062.00;4981904;28;20032;-84
2022/06/27 02:39:11;;;;;;;2.75;2.42;;;;;;;18.88;75.01;101056.13;4981899;28;20022;-83
2022/06/27 02:41:40;;;;;;;2.33;2.13;;;;;;;18.85;75.06;101050.94;4981707;28;20407;-84
2022/06/27 02:44:08;;;;;;;2.35;2.25;;;;;;;18.80;75.58;101052.94;4981738;28;20415;-83
2022/06/27 02:46:33;;;;;;;2.70;2.50;;;;;;;18.82;74.99;101051.09;4981486;28;20032;-83
2022/06/27 02:48:59;;;;;;;2.40;2.25;;;;;;;18.81;74.53;101049.38;4981666;28;20030;-83
2022/06/27 02:51:28;;;;;;;2.50;2.28;;;;;;;18.73;74.45;101047.94;4981766;28;20033;-84
2022/06/27 02:54:02;;;;;;;3.13;1.95;;;;;;;18.73;75.26;101058.53;4981630;28;20506;-84
2022/06/27 02:56:30;;;;;;;3.22;3.00;;;;;;;18.69;74.91;101066.63;4997964;28;20044;-83
2022/06/27 02:59:03;;;;;;;3.45;2.45;;;;;;;18.65;75.50;101055.34;4981430;28;20026;-83
2022/06/27 03:01:30;;;;;;;2.85;2.65;;;;;;;18.65;75.35;101050.06;4981431;28;20053;-83
2022/06/27 03:03:57;;;;;;;3.33;2.40;;;;;;;18.63;75.51;101057.19;4981560;28;20479;-83
2022/06/27 03:06:23;;;;;;;4.70;2.65;;;;;;;18.60;76.92;101094.38;4981316;28;20129;-84
2022/06/27 03:08:48;;;;;;;2.75;2.55;;;;;;;18.55;77.92;101117.50;4981343;28;20491;-83
2022/06/27 03:11:16;;;;;;;3.33;2.17;;;;;;;18.51;77.32;101123.88;4981453;28;20029;-83
2022/06/27 03:13:43;;;;;;;2.38;2.28;;;;;;;18.45;77.23;101108.25;4981228;28;20022;-84
2022/06/27 03:16:08;;;;;;;2.30;2.10;;;;;;;18.45;76.82;101095.00;4981217;28;20044;-84
2022/06/27 03:18:34;;;;;;;2.10;1.90;;;;;;;18.41;76.05;101089.88;4981199;28;20097;-84
2022/06/27 03:20:59;;;;;;;2.10;2.00;;;;;;;18.40;76.58;101124.31;4997091;28;20542;-83
2022/06/27 03:23:25;;;;;;;3.45;2.10;;;;;;;18.33;77.79;101147.50;4980925;28;20022;-83
2022/06/27 03:25:51;;;;;;;2.70;2.20;;;;;;;18.30;79.75;101189.97;4980816;28;20042;-83
2022/06/27 03:28:16;;;;;;;3.85;2.95;;;;;;;18.16;82.66;101185.22;4980927;28;20053;-83
2022/06/27 03:30:42;;;;;;;6.05;2.92;;;;;;;18.06;85.67;101160.06;4980968;28;20058;-83
2022/06/27 03:33:08;;;;;;;5.10;2.35;;;;;;;17.94;86.98;101142.91;4979587;28;20491;-83
2022/06/27 03:35:33;;;;;;;3.88;3.15;;;;;;;17.86;88.41;101107.97;4997316;28;20025;-83
2022/06/27 03:37:59;;;;;;;3.22;2.92;;;;;;;17.83;89.13;101092.25;4980692;28;20076;-83
2022/06/27 03:40:24;;;;;;;3.17;2.97;;;;;;;17.77;89.27;101087.22;4980756;28;20021;-83
2022/06/27 03:42:50;;;;;;;3.47;3.28;;;;;;;17.61;90.03;101082.53;4980687;28;20541;-83
2022/06/27 03:45:15;;;;;;;3.45;3.20;;;;;;;17.56;90.35;101089.78;4997095;28;20033;-82
2022/06/27 03:47:53;;;;;;;3.70;3.28;;;;;;;17.45;91.06;101071.75;4980507;28;20117;-82
2022/06/27 03:50:19;;;;;;;4.60;4.25;;;;;;;17.39;90.98;101072.81;4980492;28;20033;-82
2022/06/27 03:52:45;;;;;;;3.85;3.50;;;;;;;17.31;93.31;101069.59;4996813;28;20033;-82
2022/06/27 03:55:11;;;;;;;3.90;3.60;;;;;;;17.28;95.12;101085.56;4980507;28;20024;-82
2022/06/27 03:57:38;;;;;;;3.20;3.10;;;;;;;17.25;95.29;101051.38;4980399;28;20124;-81
2022/06/27 04:00:09;;;;;;;3.58;3.38;;;;;;;17.19;95.86;101038.41;4996623;28;20026;-81
2022/06/27 04:02:35;;;;;;;3.97;3.50;;;;;;;17.17;95.66;101029.69;4980666;28;20390;-82
2022/06/27 04:05:02;;;;;;;4.80;3.95;;;;;;;17.17;95.70;101033.19;4980234;28;20024;-83
2022/06/27 04:07:27;;;;;;;4.57;3.70;;;;;;;17.21;95.92;101044.50;4980233;28;20037;-83
2022/06/27 04:09:53;;;;;;;3.70;3.40;;;;;;;17.21;96.45;101052.41;4996598;28;20395;-83
2022/06/27 04:12:18;;;;;;;4.00;3.65;;;;;;;17.20;97.27;101029.56;4979977;28;20032;-83
2022/06/27 04:14:43;;;;;;;4.07;3.75;;;;;;;17.19;97.16;101025.22;4979940;28;20018;-83
2022/06/27 04:17:09;;;;;;;4.05;3.83;;;;;;;17.17;97.37;101035.84;4980008;28;20029;-83
2022/06/27 04:19:34;;;;;;;4.75;4.07;;;;;;;17.17;98.16;101050.81;4980042;28;20502;-83
2022/06/27 04:21:59;;;;;;;4.32;4.03;;;;;;;17.18;98.99;101074.50;4979723;28;20116;-83
2022/06/27 04:24:25;;;;;;;4.35;3.95;;;;;;;17.21;99.48;101062.97;4979750;28;20028;-83
2022/06/27 04:26:50;;;;;;;5.85;4.53;;;;;;;17.19;100.00;101027.84;5013015;22;20030;-84
2022/06/27 04:29:16;;;;;;;9.15;5.07;;;;;;;17.17;100.00;100998.03;4998954;28;20124;-83
2022/06/27 04:31:41;;;;;;;6.82;4.63;;;;;;;17.19;99.99;101014.66;4999494;28;20478;-83
2022/06/27 04:34:07;;;;;;;6.57;4.57;;;;;;;17.18;100.00;100999.75;4999863;28;20112;-84
2022/06/27 04:36:32;;;;;;;5.38;4.97;;;;;;;17.16;100.00;100977.81;4999724;28;20018;-83
2022/06/27 04:38:58;;;;;;;4.90;4.45;;;;;;;17.15;100.00;100973.47;4999825;28;20056;-84
2022/06/27 04:41:25;;;;;;;5.50;5.10;;;;;;;17.13;100.00;100983.22;5015680;28;20082;-85
2022/06/27 04:43:52;;;;;;;5.32;5.00;;;;;;;17.11;100.00;100974.50;4998883;28;20079;-83
2022/06/27 04:46:18;;;;;;;5.22;4.82;;;;;;;17.12;100.00;100984.13;4999223;28;20544;-85
2022/06/27 04:48:45;;;;;;;4.93;4.55;;;;;;;17.12;100.00;100987.63;4999093;28;20022;-84
2022/06/27 04:51:11;;;;;;;5.47;5.00;;;;;;;17.17;100.00;100972.47;4999108;28;20398;-85
2022/06/27 04:53:38;;;;;;;6.28;5.40;;;;;;;17.20;99.87;100985.56;4998789;28;20021;-84
2022/06/27 04:56:05;;;;;;;5.68;5.30;;;;;;;17.21;99.57;100973.22;4999416;28;20390;-85
2022/06/27 04:58:31;;;;;;;6.00;5.22;;;;;;;17.23;100.00;100981.94;4998940;28;20021;-86
2022/06/27 05:00:56;;;;;;;5.85;5.28;;;;;;;17.24;100.00;100978.38;4999052;28;20029;-85
2022/06/27 05:03:23;;;;;;;6.22;5.82;;;;;;;17.26;100.00;100979.19;4998634;28;20064;-83
2022/06/27 05:05:50;;;;;;;5.85;5.32;;;;;;;17.27;100.00;100966.84;4998935;28;20013;-85
2022/06/27 05:08:16;;;;;;;5.68;5.32;;;;;;;17.27;100.00;100978.25;4998792;28;20068;-86
2022/06/27 05:10:42;;;;;;;6.10;5.57;;;;;;;17.26;100.00;101002.94;4998590;28;20025;-85
2022/06/27 05:13:07;;;;;;;6.25;5.65;;;;;;;17.28;100.00;101010.81;4998344;28;20029;-85
2022/06/27 05:15:33;;;;;;;6.78;5.40;;;;;;;17.29;100.00;101005.47;4998571;28;20399;-85
2022/06/27 05:17:58;;;;;;;6.15;5.60;;;;;;;17.31;100.00;100989.56;4998448;28;20119;-85
2022/06/27 05:20:24;;;;;;;7.20;6.50;;;;;;;17.31;100.00;101000.97;4998423;28;20029;-85
2022/06/27 05:22:49;;;;;;;5.80;5.40;;;;;;;17.30;100.00;101001.03;4998274;28;20025;-85
2022/06/27 05:25:14;;;;;;;6.25;5.82;;;;;;;17.34;100.00;101003.50;4998635;28;20542;-84
2022/06/27 05:27:40;;;;;;;5.78;5.38;;;;;;;17.34;100.00;100995.59;4998233;28;20037;-89
2022/06/27 05:30:06;;;;;;;6.10;5.60;;;;;;;17.37;100.00;100989.34;4998313;28;20171;-89
2022/06/27 05:32:32;;;;;;;6.55;5.97;;;;;;;17.36;100.00;100999.00;4998341;28;20032;-90
2022/06/27 05:34:57;;;;;;;7.00;6.25;;;;;;;17.40;100.00;101005.03;4998281;28;20108;-89
2022/06/27 05:37:23;;;;;;;6.45;5.93;;;;;;;17.40;100.00;100989.19;4997991;28;20467;-89
2022/06/27 05:39:48;;;;;;;7.70;7.07;;;;;;;17.43;100.00;100978.50;4998253;28;20025;-90
2022/06/27 05:42:14;;;;;;;7.07;6.43;;;;;;;17.46;100.00;100975.72;4998049;28;20455;-89
2022/06/27 05:44:40;;;;;;;7.30;6.60;;;;;;;17.48;100.00;100980.94;4998209;28;20025;-89
2022/06/27 05:47:05;;;;;;;7.10;6.60;;;;;;;17.49;100.00;100977.41;4998089;28;20034;-89
2022/06/27 05:49:31;;;;;;;7.88;7.28;;;;;;;17.56;100.00;100968.28;4998127;28;20063;-89
2022/06/27 05:51:57;;;;;;;7.43;6.93;;;;;;;17.57;100.00;100978.81;4997882;28;20106;-89
2022/06/27 05:54:24;;;;;;;8.15;7.63;;;;;;;17.63;100.00;100984.75;4998198;28;20108;-89
2022/06/27 05:56:50;;;;;;;7.32;6.93;;;;;;;17.66;100.00;100990.78;4999877;28;20028;-89
2022/06/27 05:59:16;;;;;;;7.15;6.65;;;;;;;17.67;100.00;100981.94;5002222;28;20483;-89
2022/06/27 06:01:43;;;;;;;8.60;6.93;;;;;;;17.68;100.00;100957.25;5002163;28;20087;-89
2022/06/27 06:04:09;;;;;;;8.57;7.80;;;;;;;17.69;100.00;100963.38;5002086;28;20112;-89
2022/06/27 06:06:34;;;;;;;8.18;7.57;;;;;;;17.71;100.00;100962.38;5001927;28;20148;-89
2022/06/27 06:09:01;;;;;;;8.90;7.90;;;;;;;17.74;100.00;100971.97;5002020;28;20060;-89
2022/06/27 06:11:27;;;;;;;9.05;8.18;;;;;;;17.78;100.00;100962.13;5001956;28;20033;-89
2022/06/27 06:13:53;;;;;;;8.63;8.07;;;;;;;17.80;100.00;100960.28;5001864;28;20510;-89
2022/06/27 06:16:20;;;;;;;8.65;8.02;;;;;;;17.81;100.00;100967.28;5002232;28;20022;-89
2022/06/27 06:18:52;;;;;;;8.63;8.02;;;;;;;17.81;100.00;100956.72;5001696;28;20222;-89
2022/06/27 06:21:22;;;;;;;9.35;8.75;;;;;;;17.86;100.00;100946.78;5002544;28;20028;-89
2022/06/27 06:23:49;;;;;;;10.48;9.60;;;;;;;17.92;100.00;100951.88;5017927;28;20491;-89
2022/06/27 06:26:16;;;;;;;9.35;8.60;;;;;;;17.94;100.00;100952.63;5001654;28;20437;-89
2022/06/27 06:28:43;;;;;;;10.63;9.52;;;;;;;17.95;100.00;100937.66;5016758;28;20391;-89
2022/06/27 06:31:09;;;;;;;9.80;9.10;;;;;;;17.97;100.00;100946.38;5000194;28;20026;-89
2022/06/27 06:33:35;;;;;;;10.40;9.45;;;;;;;17.98;100.00;100946.28;5000223;28;20090;-89
2022/06/27 06:36:01;;;;;;;11.40;10.20;;;;;;;17.98;100.00;100951.59;5000440;28;20028;-88
2022/06/27 06:38:27;;;;;;;11.10;10.20;;;;;;;18.02;100.00;100953.16;5000173;28;20052;-90
2022/06/27 06:40:53;;;;;;;12.30;10.80;;;;;;;18.06;100.00;100951.25;5000567;28;20398;-88
2022/06/27 06:43:18;;;;;;;11.13;10.25;;;;;;;18.07;100.00;100945.91;5016868;28;20021;-89
2022/06/27 06:45:44;;;;;;;10.57;9.57;;;;;;;18.04;100.00;100948.69;5016420;28;20025;-89
2022/06/27 06:48:11;;;;;;;13.70;10.13;;;;;;;18.07;100.00;100951.19;5016395;28;20040;-91
2022/06/27 06:50:37;;;;;;;10.93;10.05;;;;;;;18.11;100.00;100948.44;5000232;28;20025;-89
2022/06/27 06:53:04;;;;;;;12.07;10.90;;;;;;;18.15;100.00;100947.38;5000176;28;20021;-89
2022/06/27 06:55:30;;;;;;;10.90;9.80;;;;;;;18.15;100.00;100955.31;5000464;28;20026;-88
2022/06/27 06:57:56;;;;;;;11.57;10.55;;;;;;;18.16;100.00;100968.44;5000081;28;20021;-88
2022/06/27 07:00:22;;;;;;;11.80;10.57;;;;;;;18.17;100.00;100956.09;5000301;28;20112;-88
2022/06/27 07:02:48;;;;;;;11.57;10.40;;;;;;;18.17;100.00;100961.38;5000007;28;20032;-89
2022/06/27 07:05:16;;;;;;;11.10;9.95;;;;;;;18.18;100.00;100969.22;5000353;28;20072;-89
2022/06/27 07:07:42;;;;;;;11.60;10.60;;;;;;;18.20;100.00;100985.03;5015825;28;20380;-89
2022/06/27 07:10:09;;;;;;;12.00;10.82;;;;;;;18.23;100.00;101006.06;4999538;28;20029;-89
2022/06/27 07:12:36;;;;;;;11.43;10.43;;;;;;;18.26;100.00;101015.66;4999872;28;20033;-89
2022/06/27 07:15:03;;;;;;;12.18;10.63;;;;;;;18.25;100.00;101025.34;4999844;28;20538;-91
2022/06/27 07:17:29;;;;;;;11.90;10.93;;;;;;;18.26;100.00;101027.06;4999793;28;20390;-90
2022/06/27 07:19:56;;;;;;;15.93;14.52;;;;;;;18.24;100.00;101034.19;4999765;28;20030;-90
2022/06/27 07:22:23;;;;;;;15.80;14.60;;;;;;;18.19;100.00;101036.19;4999948;28;20021;-90
2022/06/27 07:24:49;;;;;;;17.70;16.00;;;;;;;18.13;100.00;101049.66;4999962;28;20014;-90
2022/06/27 07:27:18;;;;;;;15.02;13.80;;;;;;;18.06;100.00;101041.13;4452133;28;15898591;-89
2022/06/27 07:29:44;;;;;;;14.88;13.68;;;;;;;18.04;100.00;101043.84;5000607;28;20025;-89
2022/06/27 07:32:09;;;;;;;15.23;13.93;;;;;;;18.00;100.00;101036.97;5000626;28;20026;-90
2022/06/27 07:34:35;;;;;;;15.88;14.35;;;;;;;17.98;100.00;101044.09;5000325;28;20426;-89
2022/06/27 07:37:01;;;;;;;15.38;13.95;;;;;;;17.96;100.00;101053.88;5000469;28;20225;-89
2022/06/27 07:39:26;;;;;;;13.68;12.40;;;;;;;17.89;100.00;101053.22;5000353;28;20021;-89
2022/06/27 07:41:53;;;;;;;11.60;10.73;;;;;;;17.82;100.00;101048.25;5016866;28;20049;-90
2022/06/27 07:44:18;;;;;;;10.52;9.82;;;;;;;17.80;100.00;101047.47;5000332;28;20104;-89
2022/06/27 07:46:44;;;;;;;9.85;9.25;;;;;;;17.76;100.00;101048.53;5000263;28;20538;-90
2022/06/27 07:49:09;;;;;;;9.85;9.20;;;;;;;17.68;100.00;101025.03;5000261;28;20313;-89
2022/06/27 07:51:35;;;;;;;8.90;8.38;;;;;;;17.66;100.00;101022.47;5000296;28;20021;-89
2022/06/27 07:54:01;;;;;;;9.00;8.50;;;;;;;17.61;100.00;101007.72;5000686;28;20083;-89
2022/06/27 07:56:27;;;;;;;9.50;8.60;;;;;;;17.55;100.00;101022.91;5000229;28;20029;-90
2022/06/27 07:58:53;;;;;;;8.32;7.80;;;;;;;17.51;100.00;101012.53;5000453;28;20026;-92
2022/06/27 08:01:19;;;;;;;8.32;7.75;;;;;;;17.49;100.00;101017.88;5000043;28;20048;-91
2022/06/27 08:03:49;;;;;;;8.93;7.95;;;;;;;17.48;100.00;101023.19;5000239;28;20518;-91
2022/06/27 08:06:25;;;;;;;9.18;8.48;;;;;;;17.45;100.00;101028.59;5016945;28;20056;-91
2022/06/27 08:08:57;;;;;;;8.30;7.80;;;;;;;17.44;100.00;101033.03;4999787;28;20391;-91
2022/06/27 08:11:28;;;;;;;9.75;8.85;;;;;;;17.45;100.00;101031.25;4999891;28;20029;-90
2022/06/27 08:13:55;;;;;;;9.35;8.65;;;;;;;17.47;100.00;101037.34;4999879;28;20021;-90
2022/06/27 08:16:24;;;;;;;10.30;9.48;;;;;;;17.45;100.00;101023.31;5016418;28;20024;-91
2022/06/27 08:18:51;;;;;;;9.20;8.60;;;;;;;17.47;100.00;101032.06;4999196;28;20025;-91
2022/06/27 08:21:19;;;;;;;12.02;9.48;;;;;;;17.48;100.00;101033.75;4999874;28;20514;-91
2022/06/27 08:23:46;;;;;;;10.27;9.45;;;;;;;17.49;99.96;101035.50;5000270;28;20164;-91
2022/06/27 08:26:16;;;;;;;9.55;8.88;;;;;;;17.50;100.00;101034.56;4999500;28;20029;-91
2022/06/27 08:28:43;;;;;;;10.48;9.68;;;;;;;17.50;99.37;101026.66;5000060;28;20471;-90
2022/06/27 08:31:12;;;;;;;9.75;8.95;;;;;;;17.49;99.33;101031.09;4999524;28;20025;-91
2022/06/27 08:33:39;;;;;;;10.15;9.35;;;;;;;17.50;100.00;101031.94;4999444;28;20053;-90
2022/06/27 08:36:05;;;;;;;11.70;9.98;;;;;;;17.46;100.00;101040.91;4999818;28;20025;-91
2022/06/27 08:38:42;;;;;;;10.48;9.68;;;;;;;17.42;100.00;101048.06;4999181;28;20055;-91
2022/06/27 08:41:09;;;;;;;10.02;9.13;;;;;;;17.43;100.00;101047.16;5000349;28;20083;-90
2022/06/27 08:43:36;;;;;;;10.93;10.10;;;;;;;17.42;100.00;101045.44;4999079;28;20056;-90
2022/06/27 08:46:03;;;;;;;11.60;10.70;;;;;;;17.46;100.00;101051.47;4999234;28;20083;-91
2022/06/27 08:48:32;;;;;;;10.93;10.00;;;;;;;17.43;100.00;101051.59;4999600;28;20027;-89
2022/06/27 08:51:01;;;;;;;10.18;9.40;;;;;;;17.43;99.97;101046.31;4999374;28;20078;-91
2022/06/27 08:53:27;;;;;;;10.93;9.90;;;;;;;17.44;98.46;101042.72;4999153;28;20021;-90
2022/06/27 08:55:52;;;;;;;11.07;10.27;;;;;;;17.50;96.33;101039.84;4999173;28;20475;-89
2022/06/27 08:58:19;;;;;;;11.13;10.02;;;;;;;17.48;97.28;101036.41;4999302;28;20018;-88
2022/06/27 09:00:45;;;;;;;11.55;10.48;;;;;;;17.46;98.45;101032.97;4999614;28;20449;-88
2022/06/27 09:03:18;;;;;;;12.23;11.02;;;;;;;17.48;99.90;101024.06;4999534;28;20026;-88
2022/06/27 09:05:57;;;;;;;13.18;11.25;;;;;;;17.50;99.36;101031.94;4999323;28;20495;-88
2022/06/27 09:08:31;;;;;;;11.65;10.65;;;;;;;17.50;98.82;101026.66;4999629;28;20386;-88
2022/06/27 09:10:58;;;;;;;13.00;11.90;;;;;;;17.53;98.71;101022.13;4999132;28;20072;-88
2022/06/27 09:13:25;;;;;;;19.00;17.00;;;;;;;17.53;97.91;101016.84;4999500;28;20467;-88
2022/06/27 09:16:02;;;;;;;18.65;16.75;;;;;;;17.57;97.33;101022.84;4999377;28;20028;-89
2022/06/27 09:18:34;;;;;;;17.92;16.23;;;;;;;17.60;98.83;101035.94;4998739;28;20029;-89
2022/06/27 09:21:05;;;;;;;17.77;15.95;;;;;;;17.63;100.00;101038.44;4998776;28;20052;-88
2022/06/27 09:23:49;;;;;;;19.38;17.35;;;;;;;17.64;100.00;101053.38;4998989;28;20132;-88
2022/06/27 09:26:25;;;;;;;24.83;20.90;;;;;;;17.63;100.00;101054.31;4999279;28;20451;-88
2022/06/27 09:28:56;;;;;;;25.40;20.15;;;;;;;17.64;100.00;101060.44;5032864;28;20063;-88
2022/06/27 09:31:28;;;;;;;23.13;19.58;;;;;;;17.65;100.00;101068.28;4999135;28;20025;-89
2022/06/27 09:34:19;;;;;;;21.10;18.65;;;;;;;17.66;100.00;101070.00;5014972;28;20029;-88
2022/06/27 09:36:52;;;;;;;21.25;18.15;;;;;;;17.72;100.00;101071.56;4999034;28;20025;-88
2022/06/27 09:39:29;;;;;;;19.73;16.08;;;;;;;17.77;100.00;101064.31;4998733;28;20032;-88
2022/06/27 09:42:02;;;;;;;21.85;17.50;;;;;;;17.79;99.05;101048.38;4999276;28;20124;-88
2022/06/27 09:44:35;;;;;;;25.02;17.45;;;;;;;17.82;98.83;101035.91;4998904;28;20029;-88
2022/06/27 09:47:20;;;;;;;18.45;14.98;;;;;;;17.86;98.99;101037.50;4998723;28;20032;-88
2022/06/27 09:49:52;;;;;;;16.55;14.75;;;;;;;17.93;97.20;101038.16;4998636;28;20038;-89
2022/06/27 09:52:24;;;;;;;18.55;15.02;;;;;;;17.94;98.39;101037.19;5015292;28;20022;-88
2022/06/27 09:54:54;;;;;;;21.30;15.23;;;;;;;17.93;96.83;101040.78;4998483;28;20034;-88
2022/06/27 09:57:21;;;;;;;20.00;15.52;;;;;;;17.96;97.38;101032.72;4998874;28;20098;-89
2022/06/27 09:59:50;;;;;;;19.27;15.73;;;;;;;17.99;94.74;101016.75;5015035;28;20029;-88
2022/06/27 10:02:17;;;;;;;19.83;15.73;;;;;;;18.03;95.88;101026.25;4998495;28;20467;-90
2022/06/27 10:04:46;;;;;;;20.90;16.10;;;;;;;18.08;97.94;101034.84;4998275;28;20049;-89
2022/06/27 10:07:12;;;;;;;20.33;17.52;;;;;;;18.06;98.63;101046.41;4998376;28;20021;-91
2022/06/27 10:09:40;;;;;;;20.17;18.00;;;;;;;18.00;98.21;101047.53;5014875;28;20417;-92
2022/06/27 10:12:29;;;;;;;23.65;18.35;;;;;;;17.98;98.14;101046.72;4998294;28;20029;-88
2022/06/27 10:15:10;;;;;;;21.67;17.42;;;;;;;17.95;97.31;101048.66;4998155;28;20040;-90
2022/06/27 10:17:38;;;;;;;24.67;17.27;;;;;;;17.96;97.82;101047.75;5014275;28;20044;-90
2022/06/27 10:20:10;;;;;;;20.77;16.13;;;;;;;17.94;97.96;101041.66;5014251;28;20483;-90
2022/06/27 10:22:35;;;;;;;23.77;18.10;;;;;;;17.93;99.04;101038.16;4997791;28;20117;-90
2022/06/27 10:25:38;;;;;;;20.17;16.33;;;;;;;17.95;97.27;101028.38;4997944;28;20546;-90
2022/06/27 12:19:09;;;;;;;23.80;21.25;;;;;;;17.81;100.00;101094.13;5032321;28;20400;-87
2022/06/27 12:21:35;;;;;;;23.55;20.92;;;;;;;17.84;100.00;101088.69;5016326;28;20437;-87
2022/06/27 12:24:00;;;;;;;24.75;22.15;;;;;;;17.81;100.00;101072.97;5032689;28;20035;-87
2022/06/27 12:26:26;;;;;;;26.63;23.88;;;;;;;17.84;100.00;101063.13;5016395;28;20032;-86
2022/06/27 12:28:51;;;;;;;27.95;24.95;;;;;;;17.91;100.00;101069.03;5016186;28;20067;-87
2022/06/27 12:31:16;;;;;;;28.90;24.15;;;;;;;17.94;100.00;101066.28;5016283;28;20021;-86
2022/06/27 12:33:43;;;;;;;25.15;22.67;;;;;;;18.02;100.00;101074.75;5032902;28;20025;-87
2022/06/27 12:36:08;;;;;;;25.08;22.48;;;;;;;18.12;100.00;101071.72;5016250;28;20053;-86
2022/06/27 12:38:34;;;;;;;26.98;23.38;;;;;;;18.19;100.00;101068.78;5014948;28;20025;-87
2022/06/27 12:41:11;;;;;;;25.30;22.65;;;;;;;18.32;100.00;101071.75;5032435;28;20082;-87
2022/06/27 12:43:41;;;;;;;26.38;23.67;;;;;;;18.47;100.00;101072.03;5016897;28;20021;-88
2022/06/27 12:46:06;;;;;;;24.33;21.92;;;;;;;18.55;100.00;101059.31;5015368;28;20030;-87
2022/06/27 12:48:32;;;;;;;24.63;22.23;;;;;;;18.61;99.72;101052.91;5015434;28;20090;-87
2022/06/27 12:50:58;;;;;;;25.10;22.30;;;;;;;18.66;99.30;101057.03;5032054;28;20029;-87
2022/06/27 12:53:24;;;;;;;25.75;23.20;;;;;;;18.66;96.44;101059.69;5015428;28;20119;-87
2022/06/27 12:55:49;;;;;;;25.92;23.33;;;;;;;18.73;96.00;101049.69;5015286;28;20078;-87
2022/06/27 12:58:16;;;;;;;30.27;24.33;;;;;;;18.81;97.49;101042.28;5015268;28;20062;-87
2022/06/27 13:00:41;;;;;;;26.70;24.05;;;;;;;18.91;98.04;101034.84;5032125;28;20485;-87
2022/06/27 13:03:07;;;;;;;25.52;22.98;;;;;;;19.00;96.33;101047.63;5014993;28;20060;-87
2022/06/27 13:05:32;;;;;;;25.65;23.25;;;;;;;19.07;95.08;101057.03;5014841;28;20082;-89
2022/06/27 13:07:58;;;;;;;23.80;21.60;;;;;;;19.12;96.88;101056.78;5031970;28;20018;-87